sensor_id;sensor_type;location;lat;lon;timestamp;P1;durP1;ratioP1;P2;durP2;ratioP2
5900;SDS011;2976;49.764;9.796;2023-05-10T00:00:36;2.50;;;1.53;;
5900;SDS011;2976;49.764;9.796;2023-05-10T00:03:02;2.40;;;2.30;;
5900;SDS011;2976;49.764;9.796;2023-05-10T00:05:29;2.17;;;2.00;;
5900;SDS011;2976;49.764;9.796;2023-05-10T00:07:55;1.70;;;1.60;;
5900;SDS011;2976;49.764;9.796;2023-05-10T00:10:21;2.13;;;1.93;;
5900;SDS011;2976;49.764;9.796;2023-05-10T00:12:47;3.87;;;2.20;;
5900;SDS011;2976;49.764;9.796;2023-05-10T00:15:12;2.50;;;2.30;;
5900;SDS011;2976;49.764;9.796;2023-05-10T00:17:38;4.30;;;2.13;;
5900;SDS011;2976;49.764;9.796;2023-05-10T00:20:03;2.30;;;2.10;;
5900;SDS011;2976;49.764;9.796;2023-05-10T00:22:30;9.13;;;2.07;;
5900;SDS011;2976;49.764;9.796;2023-05-10T00:24:56;4.03;;;2.13;;
5900;SDS011;2976;49.764;9.796;2023-05-10T00:27:22;2.47;;;2.27;;
5900;SDS011;2976;49.764;9.796;2023-05-10T00:29:47;3.73;;;2.20;;
5900;SDS011;2976;49.764;9.796;2023-05-10T00:32:13;2.67;;;2.47;;
5900;SDS011;2976;49.764;9.796;2023-05-10T00:34:39;2.70;;;2.30;;
5900;SDS011;2976;49.764;9.796;2023-05-10T00:37:04;3.63;;;2.70;;
5900;SDS011;2976;49.764;9.796;2023-05-10T00:39:30;3.97;;;2.13;;
5900;SDS011;2976;49.764;9.796;2023-05-10T00:41:56;2.60;;;2.40;;
5900;SDS011;2976;49.764;9.796;2023-05-10T00:44:21;2.17;;;2.07;;
5900;SDS011;2976;49.764;9.796;2023-05-10T00:46:48;3.50;;;2.53;;
5900;SDS011;2976;49.764;9.796;2023-05-10T00:49:14;2.60;;;2.50;;
5900;SDS011;2976;49.764;9.796;2023-05-10T00:51:41;2.43;;;2.00;;
5900;SDS011;2976;49.764;9.796;2023-05-10T00:54:08;2.47;;;2.37;;
5900;SDS011;2976;49.764;9.796;2023-05-10T00:56:36;2.80;;;2.60;;
5900;SDS011;2976;49.764;9.796;2023-05-10T00:59:02;2.83;;;2.57;;
5900;SDS011;2976;49.764;9.796;2023-05-10T01:01:28;2.00;;;1.90;;
5900;SDS011;2976;49.764;9.796;2023-05-10T01:03:54;2.13;;;2.03;;
5900;SDS011;2976;49.764;9.796;2023-05-10T01:06:20;2.20;;;2.10;;
5900;SDS011;2976;49.764;9.796;2023-05-10T01:08:46;1.90;;;1.80;;
5900;SDS011;2976;49.764;9.796;2023-05-10T01:11:12;2.57;;;2.47;;
5900;SDS011;2976;49.764;9.796;2023-05-10T01:13:38;2.30;;;2.20;;
5900;SDS011;2976;49.764;9.796;2023-05-10T01:16:06;2.07;;;1.97;;
5900;SDS011;2976;49.764;9.796;2023-05-10T01:18:36;2.20;;;2.00;;
5900;SDS011;2976;49.764;9.796;2023-05-10T01:21:16;2.50;;;2.40;;
5900;SDS011;2976;49.764;9.796;2023-05-10T01:26:18;2.97;;;2.60;;
5900;SDS011;2976;49.764;9.796;2023-05-10T01:34:16;2.57;;;2.30;;
5900;SDS011;2976;49.764;9.796;2023-05-10T01:36:50;2.00;;;1.80;;
5900;SDS011;2976;49.764;9.796;2023-05-10T01:39:36;1.80;;;1.70;;
5900;SDS011;2976;49.764;9.796;2023-05-10T01:42:14;1.50;;;1.40;;
5900;SDS011;2976;49.764;9.796;2023-05-10T01:47:11;1.50;;;1.50;;
5900;SDS011;2976;49.764;9.796;2023-05-10T01:49:43;2.33;;;1.20;;
5900;SDS011;2976;49.764;9.796;2023-05-10T01:52:14;0.93;;;0.93;;
5900;SDS011;2976;49.764;9.796;2023-05-10T01:54:59;0.90;;;0.90;;
5900;SDS011;2976;49.764;9.796;2023-05-10T01:57:27;0.93;;;0.93;;
5900;SDS011;2976;49.764;9.796;2023-05-10T01:59:58;1.83;;;1.30;;
5900;SDS011;2976;49.764;9.796;2023-05-10T02:02:25;2.20;;;0.87;;
5900;SDS011;2976;49.764;9.796;2023-05-10T02:04:54;3.03;;;0.90;;
5900;SDS011;2976;49.764;9.796;2023-05-10T02:07:21;0.93;;;0.93;;
5900;SDS011;2976;49.764;9.796;2023-05-10T02:09:48;1.20;;;1.20;;
5900;SDS011;2976;49.764;9.796;2023-05-10T02:12:14;0.90;;;0.90;;
5900;SDS011;2976;49.764;9.796;2023-05-10T02:14:41;1.50;;;0.80;;
5900;SDS011;2976;49.764;9.796;2023-05-10T02:17:08;0.60;;;0.60;;
5900;SDS011;2976;49.764;9.796;2023-05-10T02:19:34;2.20;;;0.90;;
5900;SDS011;2976;49.764;9.796;2023-05-10T02:22:03;1.80;;;1.00;;
5900;SDS011;2976;49.764;9.796;2023-05-10T02:24:29;0.57;;;0.57;;
5900;SDS011;2976;49.764;9.796;2023-05-10T02:26:57;0.63;;;0.63;;
5900;SDS011;2976;49.764;9.796;2023-05-10T02:29:23;0.70;;;0.70;;
5900;SDS011;2976;49.764;9.796;2023-05-10T02:31:52;0.80;;;0.80;;
5900;SDS011;2976;49.764;9.796;2023-05-10T02:34:21;2.50;;;1.03;;
5900;SDS011;2976;49.764;9.796;2023-05-10T02:36:48;1.23;;;1.03;;
5900;SDS011;2976;49.764;9.796;2023-05-10T02:39:14;1.40;;;1.20;;
5900;SDS011;2976;49.764;9.796;2023-05-10T02:41:41;0.93;;;0.93;;
5900;SDS011;2976;49.764;9.796;2023-05-10T02:44:08;0.97;;;0.97;;
5900;SDS011;2976;49.764;9.796;2023-05-10T02:46:35;2.10;;;0.70;;
5900;SDS011;2976;49.764;9.796;2023-05-10T02:49:02;1.00;;;0.90;;
5900;SDS011;2976;49.764;9.796;2023-05-10T02:51:29;0.80;;;0.80;;
5900;SDS011;2976;49.764;9.796;2023-05-10T02:53:57;0.63;;;0.63;;
5900;SDS011;2976;49.764;9.796;2023-05-10T02:56:28;2.50;;;0.97;;
5900;SDS011;2976;49.764;9.796;2023-05-10T02:58:57;0.80;;;0.80;;
5900;SDS011;2976;49.764;9.796;2023-05-10T03:01:23;3.40;;;0.80;;
5900;SDS011;2976;49.764;9.796;2023-05-10T03:03:49;4.30;;;0.87;;
5900;SDS011;2976;49.764;9.796;2023-05-10T03:06:14;1.00;;;1.00;;
5900;SDS011;2976;49.764;9.796;2023-05-10T03:08:41;1.13;;;1.03;;
5900;SDS011;2976;49.764;9.796;2023-05-10T03:17:10;2.50;;;0.80;;
5900;SDS011;2976;49.764;9.796;2023-05-10T03:19:56;0.70;;;0.70;;
5900;SDS011;2976;49.764;9.796;2023-05-10T03:22:32;1.10;;;1.10;;
5900;SDS011;2976;49.764;9.796;2023-05-10T03:25:03;1.50;;;0.90;;
5900;SDS011;2976;49.764;9.796;2023-05-10T03:27:31;1.00;;;1.00;;
5900;SDS011;2976;49.764;9.796;2023-05-10T03:29:57;1.60;;;0.90;;
5900;SDS011;2976;49.764;9.796;2023-05-10T03:32:23;3.90;;;1.10;;
5900;SDS011;2976;49.764;9.796;2023-05-10T03:34:49;0.93;;;0.93;;
5900;SDS011;2976;49.764;9.796;2023-05-10T03:37:15;0.90;;;0.90;;
5900;SDS011;2976;49.764;9.796;2023-05-10T03:39:40;0.97;;;0.97;;
5900;SDS011;2976;49.764;9.796;2023-05-10T03:42:06;0.97;;;0.97;;
5900;SDS011;2976;49.764;9.796;2023-05-10T03:44:31;0.60;;;0.60;;
5900;SDS011;2976;49.764;9.796;2023-05-10T03:46:58;2.00;;;0.77;;
5900;SDS011;2976;49.764;9.796;2023-05-10T03:49:24;4.23;;;0.90;;
5900;SDS011;2976;49.764;9.796;2023-05-10T03:51:49;1.90;;;0.90;;
5900;SDS011;2976;49.764;9.796;2023-05-10T03:54:15;2.00;;;1.50;;
5900;SDS011;2976;49.764;9.796;2023-05-10T03:56:40;1.70;;;1.27;;
5900;SDS011;2976;49.764;9.796;2023-05-10T03:59:06;2.60;;;1.00;;
5900;SDS011;2976;49.764;9.796;2023-05-10T04:01:33;2.53;;;0.80;;
5900;SDS011;2976;49.764;9.796;2023-05-10T04:03:59;4.83;;;0.90;;
5900;SDS011;2976;49.764;9.796;2023-05-10T04:06:25;1.43;;;0.97;;
5900;SDS011;2976;49.764;9.796;2023-05-10T04:08:50;4.03;;;1.10;;
5900;SDS011;2976;49.764;9.796;2023-05-10T04:11:16;4.77;;;1.33;;
5900;SDS011;2976;49.764;9.796;2023-05-10T04:13:41;0.90;;;0.90;;
5900;SDS011;2976;49.764;9.796;2023-05-10T04:16:08;0.87;;;0.87;;
5900;SDS011;2976;49.764;9.796;2023-05-10T04:18:33;0.60;;;0.60;;
5900;SDS011;2976;49.764;9.796;2023-05-10T04:20:59;1.80;;;1.23;;
5900;SDS011;2976;49.764;9.796;2023-05-10T04:23:26;5.77;;;0.93;;
5900;SDS011;2976;49.764;9.796;2023-05-10T04:25:52;1.20;;;1.20;;
5900;SDS011;2976;49.764;9.796;2023-05-10T04:28:23;0.93;;;0.93;;
5900;SDS011;2976;49.764;9.796;2023-05-10T04:30:49;1.80;;;1.10;;
5900;SDS011;2976;49.764;9.796;2023-05-10T04:33:14;1.57;;;1.10;;
5900;SDS011;2976;49.764;9.796;2023-05-10T04:35:40;0.87;;;0.87;;
5900;SDS011;2976;49.764;9.796;2023-05-10T04:38:06;2.57;;;1.10;;
5900;SDS011;2976;49.764;9.796;2023-05-10T04:40:31;1.00;;;1.00;;
5900;SDS011;2976;49.764;9.796;2023-05-10T04:42:57;1.10;;;1.00;;
5900;SDS011;2976;49.764;9.796;2023-05-10T04:45:23;1.37;;;1.37;;
5900;SDS011;2976;49.764;9.796;2023-05-10T04:47:48;1.53;;;0.93;;
5900;SDS011;2976;49.764;9.796;2023-05-10T04:50:14;1.00;;;1.00;;
5900;SDS011;2976;49.764;9.796;2023-05-10T04:52:40;1.27;;;1.20;;
5900;SDS011;2976;49.764;9.796;2023-05-10T04:55:05;1.13;;;1.03;;
5900;SDS011;2976;49.764;9.796;2023-05-10T04:57:34;3.10;;;1.33;;
5900;SDS011;2976;49.764;9.796;2023-05-10T04:59:59;1.50;;;1.43;;
5900;SDS011;2976;49.764;9.796;2023-05-10T05:02:25;1.37;;;1.17;;
5900;SDS011;2976;49.764;9.796;2023-05-10T05:04:51;3.77;;;1.30;;
5900;SDS011;2976;49.764;9.796;2023-05-10T05:07:16;1.17;;;1.17;;
5900;SDS011;2976;49.764;9.796;2023-05-10T05:09:42;1.40;;;1.30;;
5900;SDS011;2976;49.764;9.796;2023-05-10T05:12:07;1.00;;;1.00;;
5900;SDS011;2976;49.764;9.796;2023-05-10T05:14:33;1.43;;;1.20;;
5900;SDS011;2976;49.764;9.796;2023-05-10T05:16:59;1.30;;;1.30;;
5900;SDS011;2976;49.764;9.796;2023-05-10T05:19:24;1.33;;;1.20;;
5900;SDS011;2976;49.764;9.796;2023-05-10T05:21:50;1.00;;;1.00;;
5900;SDS011;2976;49.764;9.796;2023-05-10T05:24:15;2.47;;;1.40;;
5900;SDS011;2976;49.764;9.796;2023-05-10T05:26:41;1.70;;;1.40;;
5900;SDS011;2976;49.764;9.796;2023-05-10T05:29:06;5.70;;;1.10;;
5900;SDS011;2976;49.764;9.796;2023-05-10T05:31:32;1.27;;;1.17;;
5900;SDS011;2976;49.764;9.796;2023-05-10T05:33:58;1.10;;;0.83;;
5900;SDS011;2976;49.764;9.796;2023-05-10T05:36:23;0.90;;;0.90;;
5900;SDS011;2976;49.764;9.796;2023-05-10T05:38:49;1.20;;;1.10;;
5900;SDS011;2976;49.764;9.796;2023-05-10T05:41:14;0.77;;;0.77;;
5900;SDS011;2976;49.764;9.796;2023-05-10T05:43:40;2.30;;;1.00;;
5900;SDS011;2976;49.764;9.796;2023-05-10T05:46:05;2.97;;;1.50;;
5900;SDS011;2976;49.764;9.796;2023-05-10T05:48:31;2.10;;;1.20;;
5900;SDS011;2976;49.764;9.796;2023-05-10T05:50:56;1.60;;;1.50;;
5900;SDS011;2976;49.764;9.796;2023-05-10T05:53:22;1.30;;;1.20;;
5900;SDS011;2976;49.764;9.796;2023-05-10T05:55:55;1.60;;;1.50;;
5900;SDS011;2976;49.764;9.796;2023-05-10T05:58:22;1.77;;;1.70;;
5900;SDS011;2976;49.764;9.796;2023-05-10T06:00:48;2.83;;;1.70;;
5900;SDS011;2976;49.764;9.796;2023-05-10T06:03:13;1.27;;;1.17;;
5900;SDS011;2976;49.764;9.796;2023-05-10T06:05:39;1.30;;;1.30;;
5900;SDS011;2976;49.764;9.796;2023-05-10T06:08:05;1.63;;;1.40;;
5900;SDS011;2976;49.764;9.796;2023-05-10T06:10:30;1.33;;;1.27;;
5900;SDS011;2976;49.764;9.796;2023-05-10T06:12:56;1.63;;;1.53;;
5900;SDS011;2976;49.764;9.796;2023-05-10T06:15:22;1.67;;;1.57;;
5900;SDS011;2976;49.764;9.796;2023-05-10T06:17:47;1.40;;;1.30;;
5900;SDS011;2976;49.764;9.796;2023-05-10T06:20:14;4.20;;;1.43;;
5900;SDS011;2976;49.764;9.796;2023-05-10T06:22:40;3.33;;;0.90;;
5900;SDS011;2976;49.764;9.796;2023-05-10T06:25:06;1.70;;;1.20;;
5900;SDS011;2976;49.764;9.796;2023-05-10T06:27:32;1.53;;;1.43;;
5900;SDS011;2976;49.764;9.796;2023-05-10T06:29:57;1.17;;;0.97;;
5900;SDS011;2976;49.764;9.796;2023-05-10T06:32:23;1.17;;;1.07;;
5900;SDS011;2976;49.764;9.796;2023-05-10T06:34:49;1.23;;;1.13;;
5900;SDS011;2976;49.764;9.796;2023-05-10T06:37:14;2.00;;;1.10;;
5900;SDS011;2976;49.764;9.796;2023-05-10T06:39:40;1.23;;;1.20;;
5900;SDS011;2976;49.764;9.796;2023-05-10T06:42:05;1.30;;;1.30;;
5900;SDS011;2976;49.764;9.796;2023-05-10T06:44:31;1.10;;;1.10;;
5900;SDS011;2976;49.764;9.796;2023-05-10T06:46:56;1.30;;;1.20;;
5900;SDS011;2976;49.764;9.796;2023-05-10T06:49:22;1.90;;;1.80;;
5900;SDS011;2976;49.764;9.796;2023-05-10T06:51:47;1.93;;;1.30;;
5900;SDS011;2976;49.764;9.796;2023-05-10T06:54:14;1.40;;;1.30;;
5900;SDS011;2976;49.764;9.796;2023-05-10T06:56:39;2.57;;;1.27;;
5900;SDS011;2976;49.764;9.796;2023-05-10T06:59:05;1.27;;;1.23;;
5900;SDS011;2976;49.764;9.796;2023-05-10T07:01:31;3.13;;;1.93;;
5900;SDS011;2976;49.764;9.796;2023-05-10T07:03:57;1.53;;;1.47;;
5900;SDS011;2976;49.764;9.796;2023-05-10T07:06:22;6.00;;;1.93;;
5900;SDS011;2976;49.764;9.796;2023-05-10T07:08:48;2.13;;;1.50;;
5900;SDS011;2976;49.764;9.796;2023-05-10T07:11:13;1.70;;;1.60;;
5900;SDS011;2976;49.764;9.796;2023-05-10T07:13:39;2.23;;;1.57;;
5900;SDS011;2976;49.764;9.796;2023-05-10T07:16:08;5.23;;;1.80;;
5900;SDS011;2976;49.764;9.796;2023-05-10T07:18:34;5.00;;;1.70;;
5900;SDS011;2976;49.764;9.796;2023-05-10T07:21:00;3.73;;;1.57;;
5900;SDS011;2976;49.764;9.796;2023-05-10T07:23:26;1.83;;;1.73;;
5900;SDS011;2976;49.764;9.796;2023-05-10T07:25:52;1.80;;;1.70;;
5900;SDS011;2976;49.764;9.796;2023-05-10T07:28:18;5.70;;;2.17;;
5900;SDS011;2976;49.764;9.796;2023-05-10T07:30:44;3.30;;;1.40;;
5900;SDS011;2976;49.764;9.796;2023-05-10T07:33:12;1.57;;;1.47;;
5900;SDS011;2976;49.764;9.796;2023-05-10T07:35:38;3.37;;;1.80;;
5900;SDS011;2976;49.764;9.796;2023-05-10T07:38:04;2.90;;;1.90;;
5900;SDS011;2976;49.764;9.796;2023-05-10T07:40:30;2.40;;;1.67;;
5900;SDS011;2976;49.764;9.796;2023-05-10T07:42:56;2.40;;;1.40;;
5900;SDS011;2976;49.764;9.796;2023-05-10T07:45:22;2.10;;;1.93;;
5900;SDS011;2976;49.764;9.796;2023-05-10T07:47:48;2.47;;;1.50;;
5900;SDS011;2976;49.764;9.796;2023-05-10T07:50:14;3.17;;;1.60;;
5900;SDS011;2976;49.764;9.796;2023-05-10T07:52:39;5.30;;;1.90;;
5900;SDS011;2976;49.764;9.796;2023-05-10T07:55:05;3.60;;;1.70;;
5900;SDS011;2976;49.764;9.796;2023-05-10T07:57:32;1.90;;;1.20;;
5900;SDS011;2976;49.764;9.796;2023-05-10T07:59:58;8.07;;;1.40;;
5900;SDS011;2976;49.764;9.796;2023-05-10T08:02:24;2.43;;;1.63;;
5900;SDS011;2976;49.764;9.796;2023-05-10T08:04:50;2.03;;;1.33;;
5900;SDS011;2976;49.764;9.796;2023-05-10T08:07:16;4.83;;;1.30;;
5900;SDS011;2976;49.764;9.796;2023-05-10T08:09:42;1.60;;;1.03;;
5900;SDS011;2976;49.764;9.796;2023-05-10T08:12:07;2.63;;;1.33;;
5900;SDS011;2976;49.764;9.796;2023-05-10T08:14:33;4.80;;;1.23;;
5900;SDS011;2976;49.764;9.796;2023-05-10T08:16:59;4.63;;;1.13;;
5900;SDS011;2976;49.764;9.796;2023-05-10T08:19:24;5.30;;;1.33;;
5900;SDS011;2976;49.764;9.796;2023-05-10T08:21:50;4.13;;;1.47;;
5900;SDS011;2976;49.764;9.796;2023-05-10T08:24:15;1.30;;;1.20;;
5900;SDS011;2976;49.764;9.796;2023-05-10T08:26:41;2.90;;;1.20;;
5900;SDS011;2976;49.764;9.796;2023-05-10T08:29:07;2.10;;;1.20;;
5900;SDS011;2976;49.764;9.796;2023-05-10T08:31:32;2.10;;;1.40;;
5900;SDS011;2976;49.764;9.796;2023-05-10T08:33:58;1.27;;;1.00;;
5900;SDS011;2976;49.764;9.796;2023-05-10T08:36:23;5.03;;;1.40;;
5900;SDS011;2976;49.764;9.796;2023-05-10T08:38:52;1.43;;;1.30;;
5900;SDS011;2976;49.764;9.796;2023-05-10T08:41:22;1.83;;;1.30;;
5900;SDS011;2976;49.764;9.796;2023-05-10T08:43:53;2.67;;;2.00;;
5900;SDS011;2976;49.764;9.796;2023-05-10T08:46:19;3.13;;;1.67;;
5900;SDS011;2976;49.764;9.796;2023-05-10T08:48:46;2.43;;;1.57;;
5900;SDS011;2976;49.764;9.796;2023-05-10T08:51:14;1.50;;;1.40;;
5900;SDS011;2976;49.764;9.796;2023-05-10T08:53:45;1.53;;;1.37;;
5900;SDS011;2976;49.764;9.796;2023-05-10T08:56:10;1.90;;;1.20;;
5900;SDS011;2976;49.764;9.796;2023-05-10T08:58:36;1.53;;;1.43;;
5900;SDS011;2976;49.764;9.796;2023-05-10T09:01:03;2.70;;;1.20;;
5900;SDS011;2976;49.764;9.796;2023-05-10T09:03:30;1.23;;;1.23;;
5900;SDS011;2976;49.764;9.796;2023-05-10T09:05:56;2.13;;;1.90;;
5900;SDS011;2976;49.764;9.796;2023-05-10T09:08:25;4.13;;;1.77;;
5900;SDS011;2976;49.764;9.796;2023-05-10T09:10:52;2.10;;;1.90;;
5900;SDS011;2976;49.764;9.796;2023-05-10T09:13:19;1.20;;;1.20;;
5900;SDS011;2976;49.764;9.796;2023-05-10T09:15:46;1.53;;;1.10;;
5900;SDS011;2976;49.764;9.796;2023-05-10T09:18:12;1.50;;;1.20;;
5900;SDS011;2976;49.764;9.796;2023-05-10T09:20:38;2.53;;;1.30;;
5900;SDS011;2976;49.764;9.796;2023-05-10T09:23:05;10.90;;;1.67;;
5900;SDS011;2976;49.764;9.796;2023-05-10T09:25:30;1.30;;;1.20;;
5900;SDS011;2976;49.764;9.796;2023-05-10T09:27:58;1.77;;;1.50;;
5900;SDS011;2976;49.764;9.796;2023-05-10T09:30:28;1.43;;;1.33;;
5900;SDS011;2976;49.764;9.796;2023-05-10T09:32:55;2.40;;;1.50;;
5900;SDS011;2976;49.764;9.796;2023-05-10T09:35:22;3.43;;;1.00;;
5900;SDS011;2976;49.764;9.796;2023-05-10T09:37:52;1.37;;;1.23;;
5900;SDS011;2976;49.764;9.796;2023-05-10T09:40:21;2.97;;;1.03;;
5900;SDS011;2976;49.764;9.796;2023-05-10T09:43:04;2.27;;;1.90;;
5900;SDS011;2976;49.764;9.796;2023-05-10T09:45:33;3.80;;;1.60;;
5900;SDS011;2976;49.764;9.796;2023-05-10T09:48:00;6.63;;;1.67;;
5900;SDS011;2976;49.764;9.796;2023-05-10T09:50:27;1.43;;;1.07;;
5900;SDS011;2976;49.764;9.796;2023-05-10T09:52:55;1.20;;;1.10;;
5900;SDS011;2976;49.764;9.796;2023-05-10T09:57:58;0.83;;;0.83;;
5900;SDS011;2976;49.764;9.796;2023-05-10T10:00:25;6.77;;;1.00;;
5900;SDS011;2976;49.764;9.796;2023-05-10T10:02:54;1.57;;;1.47;;
5900;SDS011;2976;49.764;9.796;2023-05-10T10:05:27;2.93;;;0.97;;
5900;SDS011;2976;49.764;9.796;2023-05-10T10:07:53;1.70;;;1.00;;
5900;SDS011;2976;49.764;9.796;2023-05-10T10:10:20;2.57;;;1.17;;
5900;SDS011;2976;49.764;9.796;2023-05-10T10:12:45;1.60;;;1.00;;
5900;SDS011;2976;49.764;9.796;2023-05-10T10:15:11;2.00;;;1.20;;
5900;SDS011;2976;49.764;9.796;2023-05-10T10:17:37;1.10;;;1.00;;
5900;SDS011;2976;49.764;9.796;2023-05-10T10:20:04;4.50;;;1.20;;
5900;SDS011;2976;49.764;9.796;2023-05-10T10:22:30;3.90;;;1.13;;
5900;SDS011;2976;49.764;9.796;2023-05-10T10:24:55;1.40;;;1.40;;
5900;SDS011;2976;49.764;9.796;2023-05-10T10:28:08;5.10;;;1.10;;
5900;SDS011;2976;49.764;9.796;2023-05-10T10:33:06;3.33;;;0.77;;
5900;SDS011;2976;49.764;9.796;2023-05-10T10:35:48;1.23;;;0.77;;
5900;SDS011;2976;49.764;9.796;2023-05-10T10:38:15;0.90;;;0.90;;
5900;SDS011;2976;49.764;9.796;2023-05-10T10:40:42;1.10;;;0.80;;
5900;SDS011;2976;49.764;9.796;2023-05-10T10:43:23;7.50;;;1.20;;
5900;SDS011;2976;49.764;9.796;2023-05-10T10:48:38;1.00;;;0.90;;
5900;SDS011;2976;49.764;9.796;2023-05-10T10:51:04;1.50;;;1.20;;
5900;SDS011;2976;49.764;9.796;2023-05-10T10:53:30;2.20;;;0.90;;
5900;SDS011;2976;49.764;9.796;2023-05-10T10:56:08;0.90;;;0.90;;
5900;SDS011;2976;49.764;9.796;2023-05-10T10:58:36;1.60;;;0.80;;
5900;SDS011;2976;49.764;9.796;2023-05-10T11:01:12;1.83;;;0.97;;
5900;SDS011;2976;49.764;9.796;2023-05-10T11:03:40;1.27;;;1.07;;
5900;SDS011;2976;49.764;9.796;2023-05-10T11:06:06;1.77;;;0.63;;
5900;SDS011;2976;49.764;9.796;2023-05-10T11:08:33;2.40;;;0.70;;
5900;SDS011;2976;49.764;9.796;2023-05-10T11:11:06;0.70;;;0.70;;
5900;SDS011;2976;49.764;9.796;2023-05-10T11:13:42;3.17;;;0.80;;
5900;SDS011;2976;49.764;9.796;2023-05-10T11:16:10;1.90;;;1.00;;
5900;SDS011;2976;49.764;9.796;2023-05-10T11:18:38;3.67;;;0.83;;
5900;SDS011;2976;49.764;9.796;2023-05-10T11:21:04;3.10;;;0.70;;
5900;SDS011;2976;49.764;9.796;2023-05-10T11:23:52;0.60;;;0.60;;
5900;SDS011;2976;49.764;9.796;2023-05-10T11:26:33;1.00;;;0.77;;
5900;SDS011;2976;49.764;9.796;2023-05-10T11:29:00;1.10;;;1.00;;
5900;SDS011;2976;49.764;9.796;2023-05-10T11:31:28;0.70;;;0.70;;
5900;SDS011;2976;49.764;9.796;2023-05-10T11:33:56;0.60;;;0.60;;
5900;SDS011;2976;49.764;9.796;2023-05-10T11:36:27;1.60;;;0.93;;
5900;SDS011;2976;49.764;9.796;2023-05-10T11:38:54;1.40;;;0.80;;
5900;SDS011;2976;49.764;9.796;2023-05-10T11:41:21;1.00;;;0.63;;
5900;SDS011;2976;49.764;9.796;2023-05-10T11:43:52;1.13;;;0.63;;
5900;SDS011;2976;49.764;9.796;2023-05-10T11:46:19;0.63;;;0.53;;
5900;SDS011;2976;49.764;9.796;2023-05-10T11:48:46;0.70;;;0.70;;
5900;SDS011;2976;49.764;9.796;2023-05-10T11:51:15;2.30;;;0.80;;
5900;SDS011;2976;49.764;9.796;2023-05-10T11:53:44;1.73;;;0.80;;
5900;SDS011;2976;49.764;9.796;2023-05-10T11:56:10;0.60;;;0.60;;
5900;SDS011;2976;49.764;9.796;2023-05-10T11:58:36;1.00;;;1.00;;
5900;SDS011;2976;49.764;9.796;2023-05-10T12:01:04;1.47;;;0.93;;
5900;SDS011;2976;49.764;9.796;2023-05-10T12:03:30;2.53;;;0.93;;
5900;SDS011;2976;49.764;9.796;2023-05-10T12:05:57;1.13;;;0.87;;
5900;SDS011;2976;49.764;9.796;2023-05-10T12:08:24;3.70;;;0.87;;
5900;SDS011;2976;49.764;9.796;2023-05-10T12:10:51;1.90;;;0.50;;
5900;SDS011;2976;49.764;9.796;2023-05-10T12:13:18;0.97;;;0.70;;
5900;SDS011;2976;49.764;9.796;2023-05-10T12:15:45;0.77;;;0.50;;
5900;SDS011;2976;49.764;9.796;2023-05-10T12:18:14;1.70;;;0.90;;
5900;SDS011;2976;49.764;9.796;2023-05-10T12:20:39;4.60;;;0.53;;
5900;SDS011;2976;49.764;9.796;2023-05-10T12:23:07;1.93;;;0.83;;
5900;SDS011;2976;49.764;9.796;2023-05-10T12:25:34;0.70;;;0.57;;
5900;SDS011;2976;49.764;9.796;2023-05-10T12:28:05;2.63;;;0.80;;
5900;SDS011;2976;49.764;9.796;2023-05-10T12:30:33;3.30;;;0.70;;
5900;SDS011;2976;49.764;9.796;2023-05-10T12:33:07;4.57;;;1.30;;
5900;SDS011;2976;49.764;9.796;2023-05-10T12:35:42;1.60;;;1.30;;
5900;SDS011;2976;49.764;9.796;2023-05-10T12:38:24;6.57;;;1.77;;
5900;SDS011;2976;49.764;9.796;2023-05-10T12:41:03;10.03;;;2.03;;
5900;SDS011;2976;49.764;9.796;2023-05-10T12:43:31;2.70;;;2.10;;
5900;SDS011;2976;49.764;9.796;2023-05-10T12:45:57;10.67;;;2.30;;
5900;SDS011;2976;49.764;9.796;2023-05-10T12:48:23;4.40;;;1.80;;
5900;SDS011;2976;49.764;9.796;2023-05-10T12:50:49;2.33;;;1.80;;
5900;SDS011;2976;49.764;9.796;2023-05-10T12:53:14;1.93;;;1.80;;
5900;SDS011;2976;49.764;9.796;2023-05-10T12:55:41;1.60;;;1.50;;
5900;SDS011;2976;49.764;9.796;2023-05-10T12:58:07;3.67;;;1.90;;
5900;SDS011;2976;49.764;9.796;2023-05-10T13:00:32;3.53;;;1.93;;
5900;SDS011;2976;49.764;9.796;2023-05-10T13:02:58;3.60;;;2.10;;
5900;SDS011;2976;49.764;9.796;2023-05-10T13:05:24;2.20;;;1.80;;
5900;SDS011;2976;49.764;9.796;2023-05-10T13:07:49;1.40;;;1.30;;
5900;SDS011;2976;49.764;9.796;2023-05-10T13:10:15;8.33;;;2.00;;
5900;SDS011;2976;49.764;9.796;2023-05-10T13:12:41;2.10;;;1.90;;
5900;SDS011;2976;49.764;9.796;2023-05-10T13:15:07;1.67;;;1.57;;
5900;SDS011;2976;49.764;9.796;2023-05-10T13:17:32;5.87;;;1.70;;
5900;SDS011;2976;49.764;9.796;2023-05-10T13:19:58;2.73;;;1.33;;
5900;SDS011;2976;49.764;9.796;2023-05-10T13:22:23;2.90;;;1.90;;
5900;SDS011;2976;49.764;9.796;2023-05-10T13:24:49;3.23;;;1.60;;
5900;SDS011;2976;49.764;9.796;2023-05-10T13:27:15;2.40;;;2.30;;
5900;SDS011;2976;49.764;9.796;2023-05-10T13:29:40;4.67;;;1.60;;
5900;SDS011;2976;49.764;9.796;2023-05-10T13:32:06;2.87;;;1.80;;
5900;SDS011;2976;49.764;9.796;2023-05-10T13:34:31;5.00;;;2.10;;
5900;SDS011;2976;49.764;9.796;2023-05-10T13:36:57;2.17;;;1.97;;
5900;SDS011;2976;49.764;9.796;2023-05-10T13:39:23;3.33;;;1.50;;
5900;SDS011;2976;49.764;9.796;2023-05-10T13:41:48;4.67;;;1.80;;
5900;SDS011;2976;49.764;9.796;2023-05-10T13:44:14;2.10;;;1.77;;
5900;SDS011;2976;49.764;9.796;2023-05-10T13:46:40;5.43;;;2.17;;
5900;SDS011;2976;49.764;9.796;2023-05-10T13:49:08;2.23;;;2.10;;
5900;SDS011;2976;49.764;9.796;2023-05-10T13:51:34;2.83;;;1.80;;
5900;SDS011;2976;49.764;9.796;2023-05-10T13:54:00;1.83;;;1.53;;
5900;SDS011;2976;49.764;9.796;2023-05-10T13:56:26;1.37;;;1.27;;
5900;SDS011;2976;49.764;9.796;2023-05-10T13:58:52;3.43;;;1.70;;
5900;SDS011;2976;49.764;9.796;2023-05-10T14:01:18;2.83;;;1.50;;
5900;SDS011;2976;49.764;9.796;2023-05-10T14:03:44;1.73;;;1.50;;
5900;SDS011;2976;49.764;9.796;2023-05-10T14:06:09;2.10;;;1.30;;
5900;SDS011;2976;49.764;9.796;2023-05-10T14:08:35;3.87;;;2.03;;
5900;SDS011;2976;49.764;9.796;2023-05-10T14:11:01;6.17;;;1.60;;
5900;SDS011;2976;49.764;9.796;2023-05-10T14:13:26;1.50;;;1.47;;
5900;SDS011;2976;49.764;9.796;2023-05-10T14:15:53;1.70;;;1.60;;
5900;SDS011;2976;49.764;9.796;2023-05-10T14:18:19;3.30;;;1.40;;
5900;SDS011;2976;49.764;9.796;2023-05-10T14:20:45;1.70;;;1.60;;
5900;SDS011;2976;49.764;9.796;2023-05-10T14:23:10;1.40;;;1.30;;
5900;SDS011;2976;49.764;9.796;2023-05-10T14:25:37;3.83;;;1.50;;
5900;SDS011;2976;49.764;9.796;2023-05-10T14:28:05;1.60;;;1.50;;
5900;SDS011;2976;49.764;9.796;2023-05-10T14:30:31;2.17;;;1.40;;
5900;SDS011;2976;49.764;9.796;2023-05-10T14:32:57;6.73;;;1.80;;
5900;SDS011;2976;49.764;9.796;2023-05-10T14:35:23;1.50;;;1.40;;
5900;SDS011;2976;49.764;9.796;2023-05-10T14:37:48;4.27;;;2.20;;
5900;SDS011;2976;49.764;9.796;2023-05-10T14:40:14;2.70;;;1.70;;
5900;SDS011;2976;49.764;9.796;2023-05-10T14:42:40;2.23;;;1.73;;
5900;SDS011;2976;49.764;9.796;2023-05-10T14:45:07;2.40;;;1.90;;
5900;SDS011;2976;49.764;9.796;2023-05-10T14:47:33;3.03;;;1.60;;
5900;SDS011;2976;49.764;9.796;2023-05-10T14:49:59;3.33;;;1.53;;
5900;SDS011;2976;49.764;9.796;2023-05-10T14:52:25;1.87;;;1.77;;
5900;SDS011;2976;49.764;9.796;2023-05-10T14:54:50;2.47;;;1.67;;
5900;SDS011;2976;49.764;9.796;2023-05-10T14:57:16;1.87;;;1.77;;
5900;SDS011;2976;49.764;9.796;2023-05-10T14:59:42;2.50;;;1.77;;
5900;SDS011;2976;49.764;9.796;2023-05-10T15:02:07;2.20;;;1.70;;
5900;SDS011;2976;49.764;9.796;2023-05-10T15:04:33;2.93;;;1.67;;
5900;SDS011;2976;49.764;9.796;2023-05-10T15:06:58;1.20;;;1.20;;
5900;SDS011;2976;49.764;9.796;2023-05-10T15:09:24;6.20;;;1.40;;
5900;SDS011;2976;49.764;9.796;2023-05-10T15:11:50;2.80;;;1.63;;
5900;SDS011;2976;49.764;9.796;2023-05-10T15:14:16;1.90;;;1.40;;
5900;SDS011;2976;49.764;9.796;2023-05-10T15:16:41;3.90;;;1.47;;
5900;SDS011;2976;49.764;9.796;2023-05-10T15:19:07;2.10;;;1.50;;
5900;SDS011;2976;49.764;9.796;2023-05-10T15:21:32;1.57;;;1.10;;
5900;SDS011;2976;49.764;9.796;2023-05-10T15:24:03;3.50;;;1.40;;
5900;SDS011;2976;49.764;9.796;2023-05-10T15:26:30;2.30;;;1.50;;
5900;SDS011;2976;49.764;9.796;2023-05-10T15:28:55;2.10;;;1.00;;
5900;SDS011;2976;49.764;9.796;2023-05-10T15:31:21;5.13;;;1.30;;
5900;SDS011;2976;49.764;9.796;2023-05-10T15:33:47;4.40;;;1.50;;
5900;SDS011;2976;49.764;9.796;2023-05-10T15:36:12;2.63;;;1.00;;
5900;SDS011;2976;49.764;9.796;2023-05-10T15:38:38;1.00;;;1.00;;